Time;durP1;ratioP1;P1;durP2;ratioP2;P2;SDS_P1;SDS_P2;PMS_P1;PMS_P2;Temp;Humidity;BMP_temperature;BMP_pressure;BME280_temperature;BME280_humidity;BME280_pressure;Samples;Min_cycle;Max_cycle;Signal;HPM_P1;HPM_P2
2021/06/07 00:00:52;;;;;;;62.20;42.13;;;16.70;99.90;;;;;;5130509;27;20019;-44
2021/06/07 00:03:17;;;;;;;60.63;40.80;;;16.70;99.90;;;;;;5131252;27;20035;-48
2021/06/07 00:05:43;;;;;;;51.05;38.22;;;16.70;99.90;;;;;;5128760;27;20072;-45
2021/06/07 00:08:09;;;;;;;49.88;37.25;;;16.70;99.90;;;;;;5118638;27;20047;-45
2021/06/07 00:10:34;;;;;;;51.65;37.05;;;16.70;99.90;;;;;;5130100;27;20116;-55
2021/06/07 00:13:01;;;;;;;55.85;40.50;;;16.70;99.90;;;;;;5130908;27;20036;-44
2021/06/07 00:15:29;;;;;;;63.00;41.85;;;16.70;99.90;;;;;;5130845;27;20523;-44
2021/06/07 00:17:54;;;;;;;56.05;38.70;;;16.70;99.90;;;;;;5130727;27;20384;-45
2021/06/07 00:20:44;;;;;;;52.40;38.40;;;16.70;99.90;;;;;;5130090;27;20027;-45
2021/06/07 00:23:11;;;;;;;50.08;36.38;;;16.70;99.90;;;;;;5130208;27;20033;-44
2021/06/07 00:25:38;;;;;;;51.78;37.17;;;16.70;99.90;;;;;;5130602;27;20020;-44
2021/06/07 00:28:05;;;;;;;48.17;36.10;;;16.70;99.90;;;;;;5130590;27;20029;-47
2021/06/07 00:30:30;;;;;;;58.58;40.10;;;16.70;99.90;;;;;;5111524;27;20055;-45
2021/06/07 00:32:56;;;;;;;54.38;37.72;;;16.70;99.90;;;;;;5130503;27;20628;-44
2021/06/07 00:35:23;;;;;;;56.53;40.85;;;16.70;99.90;;;;;;5130451;27;20127;-46
2021/06/07 00:37:49;;;;;;;61.92;41.47;;;16.70;99.90;;;;;;5117310;27;20028;-44
2021/06/07 00:40:16;;;;;;;52.85;38.88;;;16.70;99.90;;;;;;5128850;27;20027;-46
2021/06/07 00:42:42;;;;;;;57.83;39.97;;;16.70;99.90;;;;;;5130469;27;20054;-44
2021/06/07 00:45:13;;;;;;;53.90;37.67;;;16.70;99.90;;;;;;5130404;27;20039;-45
2021/06/07 00:47:39;;;;;;;51.25;36.58;;;16.70;99.90;;;;;;5130384;27;20027;-44
2021/06/07 00:50:12;;;;;;;59.08;40.22;;;16.70;99.90;;;;;;5129512;27;20038;-44
2021/06/07 00:53:00;;;;;;;59.50;40.08;;;16.70;99.90;;;;;;5129869;27;20438;-44
2021/06/07 00:55:28;;;;;;;60.22;39.67;;;16.70;99.90;;;;;;5130197;27;20388;-44
2021/06/07 00:57:55;;;;;;;51.67;38.25;;;16.70;99.90;;;;;;5129996;27;20027;-44
2021/06/07 01:00:22;;;;;;;56.97;38.63;;;16.60;99.90;;;;;;5129700;27;20023;-44
2021/06/07 01:02:48;;;;;;;51.28;37.80;;;16.60;99.90;;;;;;5130047;27;20024;-44
2021/06/07 01:05:14;;;;;;;46.55;36.53;;;16.60;99.90;;;;;;5130076;27;20069;-44
2021/06/07 01:07:40;;;;;;;50.47;37.95;;;16.60;99.90;;;;;;5118292;27;20229;-44
2021/06/07 01:10:07;;;;;;;52.65;38.03;;;16.60;99.90;;;;;;5126723;27;20023;-44
2021/06/07 01:12:33;;;;;;;46.10;36.03;;;16.60;99.90;;;;;;5129402;27;20034;-48
2021/06/07 01:14:58;;;;;;;49.67;37.85;;;16.60;99.90;;;;;;5129588;27;20027;-44
2021/06/07 01:17:26;;;;;;;50.55;39.88;;;16.60;99.90;;;;;;5129510;27;20061;-45
2021/06/07 01:19:53;;;;;;;52.75;39.38;;;16.60;99.90;;;;;;5129041;27;20019;-45
2021/06/07 01:22:19;;;;;;;51.72;39.47;;;16.60;99.90;;;;;;5129396;27;20380;-45
2021/06/07 01:24:45;;;;;;;53.95;39.78;;;16.50;99.90;;;;;;5129264;27;20033;-44
2021/06/07 01:27:11;;;;;;;50.80;39.28;;;16.50;99.90;;;;;;5128007;27;20031;-46
2021/06/07 01:29:36;;;;;;;56.45;40.05;;;16.50;99.90;;;;;;5128495;27;20030;-45
2021/06/07 01:32:02;;;;;;;51.67;39.22;;;16.50;99.90;;;;;;5128947;27;20029;-49
2021/06/07 01:34:28;;;;;;;46.97;35.42;;;16.50;99.90;;;;;;5129275;27;20396;-44
2021/06/07 01:36:53;;;;;;;47.03;36.40;;;16.50;99.90;;;;;;5125278;27;20015;-45
2021/06/07 01:39:20;;;;;;;44.67;35.15;;;16.50;99.90;;;;;;5119857;27;20101;-44
2021/06/07 01:41:46;;;;;;;46.80;37.15;;;16.50;99.90;;;;;;5129027;27;20106;-44
2021/06/07 01:44:12;;;;;;;49.17;36.83;;;16.50;99.90;;;;;;5128981;27;20114;-51
2021/06/07 01:46:37;;;;;;;51.15;39.67;;;16.50;99.90;;;;;;5128997;27;20037;-44
2021/06/07 01:49:03;;;;;;;42.80;34.92;;;16.50;99.90;;;;;;5127863;27;20464;-44
2021/06/07 01:51:28;;;;;;;43.95;35.35;;;16.40;99.90;;;;;;5128995;27;20106;-43
2021/06/07 01:53:55;;;;;;;45.85;35.97;;;16.40;99.90;;;;;;5128690;27;20098;-44
2021/06/07 01:56:21;;;;;;;40.17;34.13;;;16.40;99.90;;;;;;5129075;27;20111;-44
2021/06/07 01:58:47;;;;;;;42.47;33.70;;;16.40;99.90;;;;;;5128866;27;20519;-44
2021/06/07 02:01:19;;;;;;;41.97;34.05;;;16.40;99.90;;;;;;5128091;27;20034;-44
2021/06/07 02:03:44;;;;;;;40.75;33.53;;;16.40;99.90;;;;;;5128685;27;20042;-45
2021/06/07 02:06:12;;;;;;;41.90;35.67;;;16.40;99.90;;;;;;5125217;27;20032;-44
2021/06/07 02:08:38;;;;;;;43.65;35.47;;;16.30;99.90;;;;;;5120017;27;20416;-44
2021/06/07 02:11:10;;;;;;;42.50;32.53;;;16.30;99.90;;;;;;5128110;27;20027;-45
2021/06/07 02:13:36;;;;;;;41.13;34.65;;;16.30;99.90;;;;;;5128597;27;20472;-44
2021/06/07 02:16:06;;;;;;;41.00;32.78;;;16.30;99.90;;;;;;5128946;27;20042;-45
2021/06/07 02:18:37;;;;;;;47.90;35.28;;;16.30;99.90;;;;;;5128942;27;20217;-44
2021/06/07 02:21:03;;;;;;;;;;;16.30;99.90;;;;;;5127319;27;20088;-45
2021/06/07 02:23:29;;;;;;;41.25;34.10;;;16.20;99.90;;;;;;5128306;27;19903;-45
2021/06/07 02:25:57;;;;;;;44.55;33.63;;;16.20;99.90;;;;;;5128300;27;20400;-44
2021/06/07 02:28:23;;;;;;;42.95;34.30;;;16.10;99.90;;;;;;5128188;27;20031;-43
2021/06/07 02:30:48;;;;;;;44.15;34.22;;;16.10;99.90;;;;;;5126383;28;20030;-45
2021/06/07 02:33:15;;;;;;;44.25;33.63;;;16.20;99.90;;;;;;5128428;28;20477;-44
2021/06/07 02:35:40;;;;;;;42.55;36.10;;;16.10;99.90;;;;;;5128433;28;20023;-44
2021/06/07 02:38:06;;;;;;;45.03;36.05;;;16.10;99.90;;;;;;5115698;27;20260;-44
2021/06/07 02:40:33;;;;;;;42.88;33.75;;;16.00;99.90;;;;;;5128112;28;20026;-44
2021/06/07 02:42:59;;;;;;;39.88;33.20;;;16.00;99.90;;;;;;5128502;27;20015;-44
2021/06/07 02:45:26;;;;;;;41.88;34.55;;;16.00;99.90;;;;;;5128416;27;20024;-44
2021/06/07 02:47:54;;;;;;;40.42;33.30;;;16.00;99.90;;;;;;5128633;27;20019;-44
2021/06/07 02:50:24;;;;;;;41.60;34.47;;;16.00;99.90;;;;;;5128052;27;20054;-43
2021/06/07 02:52:50;;;;;;;47.30;34.30;;;16.00;99.90;;;;;;5128178;27;20054;-44
2021/06/07 02:55:29;;;;;;;40.78;32.83;;;16.00;99.90;;;;;;5128082;28;20061;-44
2021/06/07 02:57:55;;;;;;;39.80;32.28;;;15.90;99.90;;;;;;5128452;27;20087;-44
2021/06/07 03:00:31;;;;;;;42.97;31.83;;;15.90;99.90;;;;;;5128584;27;20476;-44
2021/06/07 03:02:58;;;;;;;40.85;31.65;;;15.90;99.90;;;;;;5132358;27;20098;-44
2021/06/07 03:05:24;;;;;;;42.30;32.03;;;15.90;99.90;;;;;;5132553;27;20030;-47
2021/06/07 03:07:50;;;;;;;39.70;31.15;;;15.80;99.90;;;;;;5119084;27;20238;-45
2021/06/07 03:10:16;;;;;;;39.75;31.65;;;15.80;99.90;;;;;;5130363;27;20126;-44
2021/06/07 03:12:41;;;;;;;43.53;31.55;;;15.80;99.90;;;;;;5130753;27;20428;-45
2021/06/07 03:15:10;;;;;;;36.72;30.13;;;15.80;99.90;;;;;;5131987;27;20124;-44
2021/06/07 03:17:35;;;;;;;40.70;30.77;;;15.80;99.90;;;;;;5130595;27;20097;-44
2021/06/07 03:20:03;;;;;;;37.92;29.17;;;15.70;99.90;;;;;;5131775;27;20020;-44
2021/06/07 03:22:28;;;;;;;45.15;31.08;;;15.70;99.90;;;;;;5131361;27;20034;-44
2021/06/07 03:24:54;;;;;;;43.53;31.35;;;15.70;99.90;;;;;;5131791;27;20043;-45
2021/06/07 03:27:20;;;;;;;43.42;32.53;;;15.70;99.90;;;;;;5131699;27;20265;-44
2021/06/07 03:29:46;;;;;;;43.72;32.60;;;15.60;99.90;;;;;;5130984;27;20054;-44
2021/06/07 03:32:12;;;;;;;37.53;30.02;;;15.60;99.90;;;;;;5131552;27;20019;-46
2021/06/07 03:34:38;;;;;;;36.08;28.50;;;15.70;99.90;;;;;;5130352;27;20115;-44
2021/06/07 03:37:04;;;;;;;34.35;28.73;;;15.70;99.90;;;;;;5126665;27;20023;-46
2021/06/07 03:39:29;;;;;;;41.85;32.65;;;15.70;99.90;;;;;;5123441;27;20027;-46
2021/06/07 03:41:55;;;;;;;41.10;32.75;;;15.70;99.90;;;;;;5131922;27;20062;-44
2021/06/07 03:44:20;;;;;;;37.53;30.23;;;15.70;99.90;;;;;;5131543;27;20063;-48
2021/06/07 03:46:46;;;;;;;45.90;32.25;;;15.70;99.90;;;;;;5130231;27;20069;-45
2021/06/07 03:49:11;;;;;;;35.08;28.08;;;15.70;99.90;;;;;;5131279;27;20023;-45
2021/06/07 03:51:37;;;;;;;38.50;28.02;;;15.70;99.90;;;;;;5131209;27;20031;-45
2021/06/07 03:54:03;;;;;;;36.55;29.25;;;15.70;99.90;;;;;;5131231;27;20094;-44
2021/06/07 03:56:28;;;;;;;36.90;28.23;;;15.70;99.90;;;;;;5131483;27;20106;-44
2021/06/07 03:58:53;;;;;;;36.60;28.50;;;15.70;99.90;;;;;;5131596;27;20027;-46
2021/06/07 04:01:19;;;;;;;34.63;26.58;;;15.70;99.90;;;;;;5107597;27;20057;-46
2021/06/07 04:03:46;;;;;;;38.58;29.02;;;15.70;99.90;;;;;;5093755;28;20442;-45
2021/06/07 04:06:12;;;;;;;37.63;30.60;;;15.60;99.90;;;;;;5093897;27;20034;-46
2021/06/07 04:08:38;;;;;;;41.50;28.65;;;15.60;99.90;;;;;;5121774;27;20019;-44
2021/06/07 04:11:04;;;;;;;35.28;29.50;;;15.60;99.90;;;;;;5129222;27;20027;-44
2021/06/07 04:13:30;;;;;;;37.35;27.02;;;15.60;99.90;;;;;;5130709;27;20034;-44
2021/06/07 04:15:55;;;;;;;40.03;30.25;;;15.60;99.90;;;;;;5130748;27;20031;-44
2021/06/07 04:18:21;;;;;;;39.72;30.17;;;15.60;99.90;;;;;;5130114;27;20049;-43
2021/06/07 04:20:46;;;;;;;35.00;28.05;;;15.60;99.90;;;;;;5109830;27;20134;-45
2021/06/07 04:23:12;;;;;;;34.70;27.58;;;15.60;99.90;;;;;;5121897;27;20049;-45
2021/06/07 04:25:37;;;;;;;38.38;28.75;;;15.60;99.90;;;;;;5106091;27;20042;-45
2021/06/07 04:28:04;;;;;;;35.67;29.85;;;15.60;99.90;;;;;;5105964;27;20288;-44
2021/06/07 04:30:31;;;;;;;34.40;27.05;;;15.50;99.90;;;;;;5101859;27;20015;-46
2021/06/07 04:32:58;;;;;;;36.22;28.10;;;15.60;99.90;;;;;;5104671;27;20458;-43
2021/06/07 04:35:24;;;;;;;35.25;27.10;;;15.60;99.90;;;;;;5103197;27;20026;-47
2021/06/07 04:37:53;;;;;;;36.80;27.40;;;15.60;99.90;;;;;;5101563;27;20047;-44
2021/06/07 04:40:28;;;;;;;40.45;28.35;;;15.60;99.90;;;;;;5101568;27;20334;-44
2021/06/07 04:42:54;;;;;;;31.60;28.05;;;15.60;99.90;;;;;;5098620;28;20020;-44
2021/06/07 04:45:21;;;;;;;31.25;25.75;;;15.60;99.90;;;;;;5098782;28;20024;-44
2021/06/07 04:47:47;;;;;;;30.20;25.23;;;15.70;99.90;;;;;;5099319;28;20016;-44
2021/06/07 04:50:14;;;;;;;36.83;27.30;;;15.70;99.90;;;;;;5097561;28;20366;-44
2021/06/07 04:53:23;;;;;;;34.00;26.92;;;15.70;99.90;;;;;;5097767;28;20028;-45
2021/06/07 04:55:48;;;;;;;41.53;28.13;;;15.70;99.90;;;;;;5102172;28;20676;-44
2021/06/07 04:58:26;;;;;;;30.30;24.35;;;15.60;99.90;;;;;;5107976;28;20269;-46
2021/06/07 05:01:06;;;;;;;37.28;27.77;;;15.60;99.90;;;;;;5108683;28;20030;-43
2021/06/07 05:03:32;;;;;;;31.88;24.73;;;15.70;99.90;;;;;;5094671;28;20504;-44
2021/06/07 05:05:59;;;;;;;30.80;25.17;;;15.60;99.90;;;;;;5104323;27;20023;-43
2021/06/07 05:08:26;;;;;;;34.60;25.92;;;15.60;99.90;;;;;;5101081;27;20308;-46
2021/06/07 05:10:52;;;;;;;34.83;25.92;;;15.70;99.90;;;;;;5112306;27;20068;-45
2021/06/07 05:13:18;;;;;;;28.55;24.45;;;15.70;99.90;;;;;;5094373;27;20028;-44
2021/06/07 05:15:43;;;;;;;32.47;24.48;;;15.80;99.90;;;;;;5103022;27;20039;-44
2021/06/07 05:18:11;;;;;;;28.63;24.27;;;15.80;99.90;;;;;;5092143;28;20045;-44
2021/06/07 05:20:37;;;;;;;32.42;26.20;;;15.80;99.90;;;;;;5092627;28;20595;-44
2021/06/07 05:23:03;;;;;;;30.73;24.60;;;15.90;99.90;;;;;;5096726;28;20115;-44
2021/06/07 05:25:31;;;;;;;31.58;25.55;;;15.90;99.90;;;;;;5097970;28;20054;-44
2021/06/07 05:27:58;;;;;;;31.10;23.30;;;15.90;99.90;;;;;;5101836;28;20032;-44
2021/06/07 05:30:26;;;;;;;30.58;24.38;;;16.10;99.90;;;;;;5088156;28;20253;-48
2021/06/07 05:32:52;;;;;;;30.30;23.13;;;16.10;99.90;;;;;;5090257;28;20040;-43
2021/06/07 05:35:20;;;;;;;31.77;25.30;;;16.20;99.90;;;;;;5105200;28;20167;-44
2021/06/07 05:37:46;;;;;;;29.88;22.70;;;16.30;99.90;;;;;;5101877;27;20103;-45
2021/06/07 05:40:13;;;;;;;28.98;23.02;;;16.30;99.90;;;;;;5107968;27;20027;-44
2021/06/07 05:42:39;;;;;;;28.75;22.05;;;16.30;99.90;;;;;;5087844;28;20393;-45
2021/06/07 05:45:08;;;;;;;31.17;24.25;;;16.40;99.90;;;;;;5087563;28;20035;-44
2021/06/07 05:47:34;;;;;;;33.78;23.90;;;16.30;99.90;;;;;;5099545;28;20032;-43
2021/06/07 05:49:59;;;;;;;36.20;25.83;;;16.30;99.90;;;;;;5093170;28;20515;-44
2021/06/07 05:52:25;;;;;;;30.60;23.70;;;16.30;99.90;;;;;;5095972;28;20114;-44
2021/06/07 05:54:51;;;;;;;29.85;23.02;;;16.30;99.90;;;;;;5094082;28;20035;-43
2021/06/07 05:57:16;;;;;;;29.85;22.92;;;16.30;99.90;;;;;;5087785;28;20044;-44
2021/06/07 05:59:43;;;;;;;31.65;23.52;;;16.30;99.90;;;;;;5085484;28;20024;-45
2021/06/07 06:02:10;;;;;;;27.95;23.00;;;16.30;99.90;;;;;;5097156;28;20023;-44
2021/06/07 06:04:36;;;;;;;30.95;24.38;;;16.30;99.90;;;;;;5095244;28;20031;-45
2021/06/07 06:07:03;;;;;;;36.10;23.88;;;16.40;99.90;;;;;;5088944;27;20017;-45
2021/06/07 06:09:29;;;;;;;31.02;24.42;;;16.40;99.90;;;;;;5117033;27;20038;-44
2021/06/07 06:11:56;;;;;;;27.75;23.00;;;16.40;99.90;;;;;;5105985;28;20027;-45
2021/06/07 06:14:22;;;;;;;32.33;24.02;;;16.40;99.90;;;;;;5090871;28;20020;-44
2021/06/07 06:16:48;;;;;;;27.25;21.83;;;16.40;99.90;;;;;;5095435;28;20545;-44
2021/06/07 06:19:14;;;;;;;38.95;26.13;;;16.40;99.90;;;;;;5106442;28;20046;-44
2021/06/07 06:21:40;;;;;;;31.13;24.50;;;16.50;99.90;;;;;;5101435;28;20749;-44
2021/06/07 06:24:10;;;;;;;33.97;26.67;;;16.40;99.90;;;;;;5085547;28;20525;-44
2021/06/07 06:26:37;;;;;;;29.65;22.80;;;16.50;99.90;;;;;;5087112;28;20194;-43
2021/06/07 06:29:04;;;;;;;35.75;26.90;;;16.50;99.90;;;;;;5086436;28;20028;-44
2021/06/07 06:31:29;;;;;;;30.63;24.42;;;16.40;99.90;;;;;;5090873;28;20106;-44
2021/06/07 06:33:55;;;;;;;33.58;23.85;;;16.50;99.90;;;;;;5106259;28;20108;-43
2021/06/07 06:36:21;;;;;;;29.33;22.08;;;16.50;99.90;;;;;;5106210;28;20015;-46
2021/06/07 06:38:46;;;;;;;30.92;23.02;;;16.60;99.90;;;;;;5113810;28;20063;-45
2021/06/07 06:41:12;;;;;;;28.65;22.08;;;16.60;99.90;;;;;;5107408;28;20370;-46
2021/06/07 06:43:38;;;;;;;31.30;22.00;;;16.70;99.90;;;;;;5107005;28;20050;-46
2021/06/07 06:46:03;;;;;;;33.47;25.38;;;16.70;99.90;;;;;;5103734;28;20484;-45
2021/06/07 06:48:32;;;;;;;27.80;23.13;;;16.80;99.90;;;;;;5117999;28;20027;-43
2021/06/07 06:50:58;;;;;;;32.83;20.17;;;16.80;99.90;;;;;;5085530;28;20047;-43
2021/06/07 06:53:24;;;;;;;26.00;21.48;;;16.90;99.90;;;;;;5087285;28;20486;-44
2021/06/07 06:55:50;;;;;;;30.63;23.30;;;17.00;99.90;;;;;;5086907;28;20480;-45
2021/06/07 06:58:16;;;;;;;25.98;20.90;;;17.10;99.90;;;;;;5095919;28;20023;-45
2021/06/07 07:00:44;;;;;;;28.95;21.35;;;17.10;99.90;;;;;;5099152;28;20415;-44
2021/06/07 07:03:12;;;;;;;31.63;21.88;;;17.10;99.90;;;;;;5101699;28;20030;-44
2021/06/07 07:05:38;;;;;;;31.95;22.70;;;17.20;99.90;;;;;;5100219;28;20020;-47
2021/06/07 07:08:05;;;;;;;31.02;21.95;;;17.20;99.90;;;;;;5100408;28;20241;-44
2021/06/07 07:10:31;;;;;;;29.60;21.45;;;17.10;99.90;;;;;;5113542;27;20042;-44
2021/06/07 07:12:57;;;;;;;31.25;24.20;;;17.20;99.90;;;;;;5107008;28;20031;-46
2021/06/07 07:15:22;;;;;;;29.40;22.48;;;17.20;99.90;;;;;;5111144;28;20373;-46
2021/06/07 07:17:48;;;;;;;30.67;21.52;;;17.20;99.90;;;;;;5124838;28;20088;-46
2021/06/07 07:20:13;;;;;;;30.17;20.60;;;17.30;99.90;;;;;;5121171;28;20065;-46
2021/06/07 07:22:40;;;;;;;27.92;20.38;;;17.40;99.90;;;;;;5105772;28;20034;-45
2021/06/07 07:25:08;;;;;;;24.02;19.20;;;17.40;99.90;;;;;;5106952;28;20480;-45
2021/06/07 07:27:36;;;;;;;31.70;22.35;;;17.30;99.90;;;;;;5106856;28;20086;-44
2021/06/07 07:30:05;;;;;;;27.95;20.77;;;17.20;99.90;;;;;;5099709;28;20405;-44
2021/06/07 07:32:31;;;;;;;28.75;21.80;;;17.20;99.90;;;;;;5095826;28;20028;-45
2021/06/07 07:34:56;;;;;;;25.42;19.63;;;17.20;99.90;;;;;;5095345;28;20024;-46
2021/06/07 07:37:21;;;;;;;26.60;20.08;;;17.20;99.90;;;;;;5097848;28;20371;-43
2021/06/07 07:39:48;;;;;;;31.63;22.60;;;17.20;99.90;;;;;;5111313;28;20024;-43
2021/06/07 07:42:14;;;;;;;26.40;21.58;;;17.40;99.90;;;;;;5106760;28;20027;-43
2021/06/07 07:44:40;;;;;;;28.67;20.77;;;17.40;99.90;;;;;;5093403;28;20460;-43
2021/06/07 07:47:07;;;;;;;28.48;21.35;;;17.50;99.90;;;;;;5104262;28;20089;-45
2021/06/07 07:49:33;;;;;;;28.90;20.88;;;17.70;99.90;;;;;;5108263;28;20039;-44
2021/06/07 07:51:59;;;;;;;27.05;20.98;;;17.80;99.90;;;;;;5104409;28;20055;-43
2021/06/07 07:54:25;;;;;;;30.13;20.27;;;18.00;99.90;;;;;;5108485;28;20373;-44
2021/06/07 07:56:50;;;;;;;26.95;19.55;;;18.20;99.90;;;;;;5108469;28;20028;-44
2021/06/07 07:59:17;;;;;;;24.58;20.33;;;18.30;99.90;;;;;;5108015;28;20218;-45
2021/06/07 08:01:43;;;;;;;20.98;17.05;;;18.30;99.90;;;;;;5106073;28;20315;-43
2021/06/07 08:04:09;;;;;;;24.75;17.90;;;18.50;99.90;;;;;;5088926;28;20477;-44
2021/06/07 08:06:34;;;;;;;23.67;19.25;;;18.50;99.90;;;;;;5090022;28;20028;-44
2021/06/07 08:09:00;;;;;;;23.02;18.70;;;18.70;99.90;;;;;;5115966;27;20029;-43
2021/06/07 08:11:25;;;;;;;28.48;19.92;;;18.80;99.90;;;;;;5130118;27;20027;-44
2021/06/07 08:13:51;;;;;;;24.20;19.00;;;18.80;99.90;;;;;;5126380;27;20020;-44
2021/06/07 08:16:17;;;;;;;20.98;18.05;;;18.70;99.90;;;;;;5089513;28;20095;-44
2021/06/07 08:18:42;;;;;;;21.92;16.80;;;18.70;99.90;;;;;;5103209;28;20473;-43
2021/06/07 08:21:08;;;;;;;23.98;18.65;;;18.80;99.90;;;;;;5109310;28;20034;-44
2021/06/07 08:23:33;;;;;;;20.35;16.92;;;18.90;99.90;;;;;;5105052;28;20032;-44
2021/06/07 08:25:59;;;;;;;23.00;16.60;;;19.00;99.90;;;;;;5109238;28;20036;-44
2021/06/07 08:28:25;;;;;;;19.67;16.73;;;19.10;99.90;;;;;;5109740;28;20024;-43
2021/06/07 08:30:50;;;;;;;21.67;17.25;;;19.10;99.90;;;;;;5108232;28;20042;-43
2021/06/07 08:33:15;;;;;;;24.25;16.67;;;19.10;99.90;;;;;;5109310;28;20392;-44
2021/06/07 08:35:41;;;;;;;18.65;15.93;;;19.20;99.90;;;;;;5092509;28;20024;-44
2021/06/07 08:38:07;;;;;;;22.90;17.30;;;19.30;99.90;;;;;;5101014;27;20181;-44
2021/06/07 08:40:32;;;;;;;20.95;17.38;;;19.50;99.90;;;;;;5115407;27;20316;-44
2021/06/07 08:42:58;;;;;;;21.60;16.98;;;19.80;99.90;;;;;;5107899;28;20209;-44
2021/06/07 08:45:25;;;;;;;19.27;15.68;;;19.90;99.90;;;;;;5092402;28;20158;-44
2021/06/07 08:47:52;;;;;;;22.38;17.02;;;20.20;99.90;;;;;;5088778;28;20115;-44
2021/06/07 08:50:21;;;;;;;21.73;16.60;;;20.00;99.90;;;;;;5088459;28;20032;-44
2021/06/07 08:52:47;;;;;;;18.73;15.98;;;20.00;99.90;;;;;;5088316;28;20032;-44
2021/06/07 08:55:15;;;;;;;21.10;17.02;;;20.10;99.90;;;;;;5092557;28;20032;-44
2021/06/07 08:57:43;;;;;;;25.73;17.17;;;20.20;99.90;;;;;;5106049;28;20026;-44
2021/06/07 09:00:13;;;;;;;23.73;18.05;;;20.20;99.90;;;;;;5093520;28;20127;-43
2021/06/07 09:02:44;;;;;;;26.05;18.33;;;20.30;99.90;;;;;;5107414;27;20538;-44
2021/06/07 09:05:11;;;;;;;23.38;18.63;;;20.30;99.90;;;;;;5097610;27;20478;-43
2021/06/07 09:07:58;;;;;;;23.25;18.42;;;20.40;99.90;;;;;;5100754;27;20052;-44
2021/06/07 09:10:27;;;;;;;19.65;15.98;;;20.30;99.90;;;;;;5100209;27;20027;-44
2021/06/07 09:12:55;;;;;;;25.35;16.63;;;20.60;99.90;;;;;;5095404;28;20028;-44
2021/06/07 09:15:23;;;;;;;26.50;18.60;;;20.90;99.90;;;;;;5108656;27;20059;-44
2021/06/07 09:17:49;;;;;;;22.50;15.70;;;21.20;99.90;;;;;;5108449;28;20106;-44
2021/06/07 09:20:18;;;;;;;22.50;16.65;;;21.50;99.90;;;;;;5106856;28;20325;-44
2021/06/07 09:22:51;;;;;;;23.17;16.13;;;21.80;99.90;;;;;;5099319;28;20374;-44
2021/06/07 09:25:18;;;;;;;18.90;15.00;;;22.00;99.90;;;;;;5088022;28;20155;-44
2021/06/07 09:28:06;;;;;;;22.90;16.75;;;22.20;99.90;;;;;;5088005;28;20031;-43
2021/06/07 09:30:34;;;;;;;21.65;16.05;;;22.10;99.90;;;;;;5087680;28;20035;-45
2021/06/07 09:33:22;;;;;;;18.35;13.95;;;22.10;99.90;;;;;;5088111;28;20035;-44
2021/06/07 09:36:20;;;;;;;19.88;16.00;;;22.30;99.90;;;;;;5087737;28;20035;-45
2021/06/07 09:39:03;;;;;;;21.02;15.57;;;23.20;99.90;;;;;;5111327;27;20016;-45
2021/06/07 09:41:33;;;;;;;13.55;12.10;;;23.50;99.90;;;;;;5093686;28;20374;-45
2021/06/07 09:44:01;;;;;;;12.47;10.73;;;24.70;98.40;;;;;;5108124;28;20405;-45
2021/06/07 09:46:29;;;;;;;15.65;13.95;;;25.40;96.00;;;;;;5108107;28;20253;-46
2021/06/07 09:49:15;;;;;;;13.93;11.25;;;26.30;92.70;;;;;;5108217;28;20024;-44
2021/06/07 09:51:52;;;;;;;11.60;10.40;;;26.80;90.80;;;;;;5099876;28;20507;-46
2021/06/07 09:54:17;;;;;;;16.35;10.80;;;26.60;90.10;;;;;;5092215;28;20026;-47
2021/06/07 09:56:57;;;;;;;12.32;11.02;;;26.30;90.00;;;;;;5107689;28;20110;-46
2021/06/07 09:59:26;;;;;;;;;;;26.70;90.40;;;;;;5094392;28;20027;-44
2021/06/07 10:01:51;;;;;;;14.05;12.57;;;27.90;80.90;;;;;;5087139;28;20415;-44
2021/06/07 10:04:17;;;;;;;11.30;9.75;;;27.20;80.30;;;;;;5092467;28;20095;-47
2021/06/07 10:06:43;;;;;;;10.93;9.05;;;27.90;82.90;;;;;;5101191;28;20028;-47
2021/06/07 10:09:11;;;;;;;11.05;9.73;;;28.60;81.30;;;;;;5114464;27;20026;-45
2021/06/07 10:11:45;;;;;;;12.77;11.45;;;28.60;75.20;;;;;;5127716;27;20051;-44
2021/06/07 10:14:15;;;;;;;14.07;11.70;;;27.80;74.80;;;;;;5128172;27;20020;-45
2021/06/07 10:17:07;;;;;;;13.43;9.80;;;27.50;76.30;;;;;;5100340;27;20035;-44
2021/06/07 10:19:41;;;;;;;17.88;13.35;;;27.10;79.40;;;;;;5083412;28;20036;-44
2021/06/07 10:22:07;;;;;;;11.38;10.00;;;27.10;78.20;;;;;;5087220;28;20402;-45
2021/06/07 10:24:33;;;;;;;13.60;9.88;;;27.40;78.90;;;;;;5087022;28;20062;-44
2021/06/07 10:27:00;;;;;;;12.45;10.48;;;27.60;77.90;;;;;;5092143;28;20392;-44
2021/06/07 10:29:42;;;;;;;11.70;9.30;;;27.40;77.60;;;;;;5106849;28;20548;-46
2021/06/07 10:32:09;;;;;;;13.27;10.85;;;26.80;78.40;;;;;;5107338;28;20039;-44
2021/06/07 10:35:05;;;;;;;15.45;11.75;;;26.60;80.50;;;;;;5107478;28;20019;-44
2021/06/07 10:37:32;;;;;;;14.35;12.35;;;27.10;79.80;;;;;;5108940;28;20019;-44
2021/06/07 10:40:19;;;;;;;14.93;12.00;;;26.80;80.90;;;;;;5118024;27;20025;-44
2021/06/07 10:42:54;;;;;;;18.80;14.05;;;26.60;79.90;;;;;;5127736;28;20012;-44
2021/06/07 10:45:26;;;;;;;15.95;13.25;;;25.70;81.30;;;;;;5126464;28;20069;-44
2021/06/07 10:47:52;;;;;;;15.25;12.57;;;25.00;85.70;;;;;;5117562;27;20274;-46
2021/06/07 10:50:30;;;;;;;19.30;14.20;;;25.10;89.10;;;;;;5106688;28;20460;-44
2021/06/07 10:53:01;;;;;;;13.85;12.18;;;25.00;89.70;;;;;;5094421;28;20024;-45
2021/06/07 10:55:31;;;;;;;16.00;12.63;;;25.10;90.60;;;;;;5087052;28;20039;-44
2021/06/07 10:58:01;;;;;;;16.60;14.23;;;24.70;90.60;;;;;;5094801;28;20034;-44
2021/06/07 11:00:43;;;;;;;21.27;16.52;;;24.70;89.80;;;;;;5104124;28;20042;-44
2021/06/07 11:03:21;;;;;;;14.07;12.25;;;24.90;86.70;;;;;;5086654;28;20056;-45
2021/06/07 11:05:53;;;;;;;11.73;10.55;;;25.40;89.80;;;;;;5090565;28;20651;-44
2021/06/07 11:08:22;;;;;;;16.13;13.32;;;26.70;87.70;;;;;;5097518;28;20091;-44
2021/06/07 11:10:59;;;;;;;11.68;10.48;;;27.60;78.50;;;;;;5110836;27;20028;-44
2021/06/07 11:13:31;;;;;;;15.73;13.80;;;28.40;78.00;;;;;;5105849;28;20393;-45
2021/06/07 11:15:59;;;;;;;13.60;9.45;;;29.60;68.80;;;;;;5107020;28;20077;-44
2021/06/07 11:18:32;;;;;;;12.10;10.00;;;30.00;70.60;;;;;;5106606;28;20058;-44
2021/06/07 11:21:07;;;;;;;14.57;11.75;;;31.00;64.00;;;;;;5107846;28;20208;-45
2021/06/07 11:23:43;;;;;;;10.32;9.00;;;30.70;66.00;;;;;;5110731;28;20048;-44
2021/06/07 11:26:17;;;;;;;14.00;12.52;;;31.30;68.40;;;;;;5109902;28;20026;-44
2021/06/07 11:29:04;;;;;;;11.75;10.55;;;31.50;61.00;;;;;;5097062;28;20119;-48
2021/06/07 11:31:32;;;;;;;14.10;12.57;;;31.50;63.10;;;;;;5090395;28;20534;-45
2021/06/07 11:34:12;;;;;;;13.48;11.98;;;31.50;58.50;;;;;;5088723;28;20120;-44
2021/06/07 11:36:59;;;;;;;13.95;11.30;;;31.30;60.30;;;;;;5090279;28;20027;-45
2021/06/07 11:39:27;;;;;;;14.52;12.38;;;31.20;61.30;;;;;;5115576;27;20363;-44
2021/06/07 11:42:04;;;;;;;12.05;9.55;;;30.70;61.50;;;;;;5108680;28;20374;-45
2021/06/07 11:45:08;;;;;;;13.13;10.70;;;31.00;63.20;;;;;;5110469;28;20030;-45
2021/06/07 11:47:36;;;;;;;13.77;12.27;;;31.10;60.30;;;;;;5101565;28;20457;-47
2021/06/07 11:50:04;;;;;;;11.23;10.05;;;30.00;60.90;;;;;;5109625;28;20443;-46
2021/06/07 11:52:33;;;;;;;13.18;11.10;;;29.60;65.20;;;;;;5110744;28;20080;-44
2021/06/07 11:55:18;;;;;;;13.85;12.48;;;29.50;65.40;;;;;;5110559;28;20050;-44
2021/06/07 11:57:45;;;;;;;15.40;10.35;;;28.70;66.70;;;;;;5093803;28;20053;-45
2021/06/07 12:00:12;;;;;;;11.25;10.05;;;28.60;67.90;;;;;;5093528;27;20466;-44
2021/06/07 12:02:38;;;;;;;14.25;12.30;;;28.30;66.10;;;;;;5122428;27;20034;-45
2021/06/07 12:05:08;;;;;;;12.98;11.25;;;28.20;69.90;;;;;;5104336;27;20508;-44
2021/06/07 12:07:35;;;;;;;13.80;10.63;;;28.20;68.30;;;;;;5099625;27;20153;-46
2021/06/07 12:10:03;;;;;;;18.40;13.50;;;27.80;70.70;;;;;;5113681;27;20035;-46
2021/06/07 12:12:28;;;;;;;17.38;13.98;;;27.00;70.20;;;;;;5110478;28;20059;-45
2021/06/07 12:14:54;;;;;;;13.35;11.95;;;27.00;74.10;;;;;;5110303;28;20132;-44
2021/06/07 12:17:22;;;;;;;15.52;12.13;;;27.00;76.90;;;;;;5110253;28;20095;-45
2021/06/07 12:19:57;;;;;;;15.77;14.00;;;27.20;73.50;;;;;;5108853;28;20027;-44
2021/06/07 12:22:37;;;;;;;18.70;14.38;;;26.70;73.10;;;;;;5108938;28;20115;-44
2021/06/07 12:30:43;;;;;;;18.58;14.38;;;26.50;75.70;;;;;;5089297;28;20234;-44
2021/06/07 12:33:09;;;;;;;17.67;13.52;;;26.20;74.60;;;;;;5088865;28;20036;-46
2021/06/07 12:35:37;;;;;;;15.30;13.70;;;25.80;77.40;;;;;;5089593;28;20034;-44
2021/06/07 12:38:05;;;;;;;16.80;13.23;;;25.70;77.60;;;;;;5112520;27;20384;-47
2021/06/07 12:40:38;;;;;;;18.08;14.50;;;25.10;80.00;;;;;;5113893;27;20095;-47